Terminal Aerodrome Forecast
Issued by NWS

Home | Current Version | Previous Version | Text Only | Print | Product List | Glossary On
Versions: 1 2 3 4 5 6 7 8 9 10 11 12 13 14 15 16 17 18 19 20 21 22 23 24 25 26
000
FTUS41 KBUF 301400 AAB
TAFIAG
TAF AMD
KIAG 301446Z 3015/3112 20016G24KT P6SM VCTS BKN070CB
     FM301700 21016G24KT P6SM SCT100
     FM310100 19012KT P6SM BKN100
     FM310300 19012KT P6SM VCSH BKN060
     FM310600 21012KT 4SM SHRA OVC040
     FM311000 22012KT 6SM -SHRA OVC050=

USA.gov is the U.S. government's official web portal to all federal, state and local government web resources and services.